sensor_id;sensor_type;location;lat;lon;timestamp;P1;durP1;ratioP1;P2;durP2;ratioP2
29412;SDS011;16389;50.126;8.450;2022-11-14T00:02:10;3.65;;;2.97;;
29412;SDS011;16389;50.126;8.450;2022-11-14T00:04:36;4.40;;;3.15;;
29412;SDS011;16389;50.126;8.450;2022-11-14T00:07:01;5.72;;;3.10;;
29412;SDS011;16389;50.126;8.450;2022-11-14T00:09:27;5.18;;;3.45;;
29412;SDS011;16389;50.126;8.450;2022-11-14T00:11:54;5.25;;;3.47;;
29412;SDS011;16389;50.126;8.450;2022-11-14T00:14:20;5.45;;;3.67;;
29412;SDS011;16389;50.126;8.450;2022-11-14T00:16:46;8.27;;;3.25;;
29412;SDS011;16389;50.126;8.450;2022-11-14T00:19:12;4.50;;;3.13;;
29412;SDS011;16389;50.126;8.450;2022-11-14T00:21:37;8.15;;;3.47;;
29412;SDS011;16389;50.126;8.450;2022-11-14T00:24:03;4.90;;;3.00;;
29412;SDS011;16389;50.126;8.450;2022-11-14T00:26:29;3.85;;;2.80;;
29412;SDS011;16389;50.126;8.450;2022-11-14T00:28:54;4.68;;;3.15;;
29412;SDS011;16389;50.126;8.450;2022-11-14T00:31:21;5.40;;;3.30;;
29412;SDS011;16389;50.126;8.450;2022-11-14T00:33:47;6.80;;;4.15;;
29412;SDS011;16389;50.126;8.450;2022-11-14T00:36:12;6.85;;;4.03;;
29412;SDS011;16389;50.126;8.450;2022-11-14T00:38:38;11.93;;;4.80;;
29412;SDS011;16389;50.126;8.450;2022-11-14T00:41:04;8.30;;;4.82;;
29412;SDS011;16389;50.126;8.450;2022-11-14T00:43:29;5.43;;;4.25;;
29412;SDS011;16389;50.126;8.450;2022-11-14T00:45:55;11.40;;;6.65;;
29412;SDS011;16389;50.126;8.450;2022-11-14T00:48:20;6.80;;;4.75;;
29412;SDS011;16389;50.126;8.450;2022-11-14T00:50:46;9.00;;;6.47;;
29412;SDS011;16389;50.126;8.450;2022-11-14T00:53:12;6.32;;;4.15;;
29412;SDS011;16389;50.126;8.450;2022-11-14T00:55:37;7.93;;;4.20;;
29412;SDS011;16389;50.126;8.450;2022-11-14T00:58:03;5.03;;;2.80;;
29412;SDS011;16389;50.126;8.450;2022-11-14T01:00:29;4.90;;;3.40;;
29412;SDS011;16389;50.126;8.450;2022-11-14T01:02:55;3.03;;;2.72;;
29412;SDS011;16389;50.126;8.450;2022-11-14T01:05:22;5.15;;;4.10;;
29412;SDS011;16389;50.126;8.450;2022-11-14T01:07:48;6.35;;;3.85;;
29412;SDS011;16389;50.126;8.450;2022-11-14T01:10:14;4.30;;;3.30;;
29412;SDS011;16389;50.126;8.450;2022-11-14T01:12:40;7.03;;;3.78;;
29412;SDS011;16389;50.126;8.450;2022-11-14T01:15:06;6.38;;;4.03;;
29412;SDS011;16389;50.126;8.450;2022-11-14T01:17:32;6.65;;;3.83;;
29412;SDS011;16389;50.126;8.450;2022-11-14T01:19:58;5.97;;;3.78;;
29412;SDS011;16389;50.126;8.450;2022-11-14T01:22:23;4.32;;;3.65;;
29412;SDS011;16389;50.126;8.450;2022-11-14T01:24:49;3.97;;;3.58;;
29412;SDS011;16389;50.126;8.450;2022-11-14T01:27:15;5.60;;;3.22;;
29412;SDS011;16389;50.126;8.450;2022-11-14T01:29:40;4.60;;;3.65;;
29412;SDS011;16389;50.126;8.450;2022-11-14T01:32:06;5.75;;;4.35;;
29412;SDS011;16389;50.126;8.450;2022-11-14T01:34:32;10.98;;;3.72;;
29412;SDS011;16389;50.126;8.450;2022-11-14T01:36:57;5.38;;;3.75;;
29412;SDS011;16389;50.126;8.450;2022-11-14T01:39:25;4.78;;;4.15;;
29412;SDS011;16389;50.126;8.450;2022-11-14T01:41:51;5.45;;;3.65;;
29412;SDS011;16389;50.126;8.450;2022-11-14T01:44:36;5.75;;;3.72;;
29412;SDS011;16389;50.126;8.450;2022-11-14T01:47:09;4.25;;;3.83;;
29412;SDS011;16389;50.126;8.450;2022-11-14T01:49:37;9.70;;;3.20;;
29412;SDS011;16389;50.126;8.450;2022-11-14T01:52:10;5.68;;;3.70;;
29412;SDS011;16389;50.126;8.450;2022-11-14T01:54:47;5.05;;;3.55;;
29412;SDS011;16389;50.126;8.450;2022-11-14T01:57:16;4.90;;;3.33;;
29412;SDS011;16389;50.126;8.450;2022-11-14T02:02:20;4.43;;;3.30;;
29412;SDS011;16389;50.126;8.450;2022-11-14T02:04:50;6.43;;;3.42;;
29412;SDS011;16389;50.126;8.450;2022-11-14T02:07:21;6.15;;;3.67;;
29412;SDS011;16389;50.126;8.450;2022-11-14T02:09:50;4.60;;;3.42;;
29412;SDS011;16389;50.126;8.450;2022-11-14T02:12:17;6.13;;;3.78;;
29412;SDS011;16389;50.126;8.450;2022-11-14T02:14:43;6.90;;;4.45;;
29412;SDS011;16389;50.126;8.450;2022-11-14T02:17:11;5.95;;;3.78;;
29412;SDS011;16389;50.126;8.450;2022-11-14T02:19:42;6.30;;;4.18;;
29412;SDS011;16389;50.126;8.450;2022-11-14T02:22:09;6.10;;;3.83;;
29412;SDS011;16389;50.126;8.450;2022-11-14T02:24:35;6.95;;;4.55;;
29412;SDS011;16389;50.126;8.450;2022-11-14T02:27:01;9.63;;;5.03;;
29412;SDS011;16389;50.126;8.450;2022-11-14T02:29:30;8.63;;;4.82;;
29412;SDS011;16389;50.126;8.450;2022-11-14T02:31:57;7.00;;;4.18;;
29412;SDS011;16389;50.126;8.450;2022-11-14T02:34:23;7.82;;;5.00;;
29412;SDS011;16389;50.126;8.450;2022-11-14T02:36:48;8.65;;;5.15;;
29412;SDS011;16389;50.126;8.450;2022-11-14T02:39:14;7.50;;;5.50;;
29412;SDS011;16389;50.126;8.450;2022-11-14T02:41:39;7.32;;;5.15;;
29412;SDS011;16389;50.126;8.450;2022-11-14T02:44:05;4.97;;;4.05;;
29412;SDS011;16389;50.126;8.450;2022-11-14T02:46:31;7.40;;;6.32;;
29412;SDS011;16389;50.126;8.450;2022-11-14T02:48:56;11.13;;;5.50;;
29412;SDS011;16389;50.126;8.450;2022-11-14T02:51:22;6.47;;;5.78;;
29412;SDS011;16389;50.126;8.450;2022-11-14T02:53:47;7.55;;;4.93;;
29412;SDS011;16389;50.126;8.450;2022-11-14T02:56:13;10.00;;;5.57;;
29412;SDS011;16389;50.126;8.450;2022-11-14T02:58:39;12.85;;;5.65;;
29412;SDS011;16389;50.126;8.450;2022-11-14T03:01:04;7.90;;;5.63;;
29412;SDS011;16389;50.126;8.450;2022-11-14T03:03:30;8.50;;;5.63;;
29412;SDS011;16389;50.126;8.450;2022-11-14T03:06:02;9.75;;;5.68;;
29412;SDS011;16389;50.126;8.450;2022-11-14T03:08:28;6.47;;;5.13;;
29412;SDS011;16389;50.126;8.450;2022-11-14T03:10:54;6.35;;;4.78;;
29412;SDS011;16389;50.126;8.450;2022-11-14T03:13:20;7.25;;;5.35;;
29412;SDS011;16389;50.126;8.450;2022-11-14T03:15:46;8.38;;;5.60;;
29412;SDS011;16389;50.126;8.450;2022-11-14T03:18:11;8.80;;;6.07;;
29412;SDS011;16389;50.126;8.450;2022-11-14T03:20:37;11.57;;;6.45;;
29412;SDS011;16389;50.126;8.450;2022-11-14T03:23:03;6.85;;;5.53;;
29412;SDS011;16389;50.126;8.450;2022-11-14T03:25:29;5.78;;;4.75;;
29412;SDS011;16389;50.126;8.450;2022-11-14T03:27:54;9.45;;;5.78;;
29412;SDS011;16389;50.126;8.450;2022-11-14T03:30:20;7.25;;;6.20;;
29412;SDS011;16389;50.126;8.450;2022-11-14T03:32:45;9.20;;;6.88;;
29412;SDS011;16389;50.126;8.450;2022-11-14T03:35:11;8.98;;;6.05;;
29412;SDS011;16389;50.126;8.450;2022-11-14T03:37:37;10.88;;;6.78;;
29412;SDS011;16389;50.126;8.450;2022-11-14T03:40:02;7.63;;;6.07;;
29412;SDS011;16389;50.126;8.450;2022-11-14T03:42:31;10.73;;;6.32;;
29412;SDS011;16389;50.126;8.450;2022-11-14T03:44:58;9.38;;;5.43;;
29412;SDS011;16389;50.126;8.450;2022-11-14T03:47:24;8.07;;;5.82;;
29412;SDS011;16389;50.126;8.450;2022-11-14T03:49:49;6.35;;;5.57;;
29412;SDS011;16389;50.126;8.450;2022-11-14T03:52:15;8.57;;;6.68;;
29412;SDS011;16389;50.126;8.450;2022-11-14T03:54:40;8.43;;;6.28;;
29412;SDS011;16389;50.126;8.450;2022-11-14T03:57:06;9.05;;;6.72;;
29412;SDS011;16389;50.126;8.450;2022-11-14T03:59:32;8.20;;;5.15;;
29412;SDS011;16389;50.126;8.450;2022-11-14T04:01:57;10.63;;;5.78;;
29412;SDS011;16389;50.126;8.450;2022-11-14T04:04:23;7.57;;;5.28;;
29412;SDS011;16389;50.126;8.450;2022-11-14T04:06:48;10.90;;;5.65;;
29412;SDS011;16389;50.126;8.450;2022-11-14T04:09:14;6.90;;;5.35;;
29412;SDS011;16389;50.126;8.450;2022-11-14T04:11:40;6.65;;;5.40;;
29412;SDS011;16389;50.126;8.450;2022-11-14T04:14:05;6.65;;;5.75;;
29412;SDS011;16389;50.126;8.450;2022-11-14T04:16:31;10.00;;;6.57;;
29412;SDS011;16389;50.126;8.450;2022-11-14T04:18:56;10.10;;;6.03;;
29412;SDS011;16389;50.126;8.450;2022-11-14T04:21:22;9.05;;;5.53;;
29412;SDS011;16389;50.126;8.450;2022-11-14T04:23:48;9.32;;;6.15;;
29412;SDS011;16389;50.126;8.450;2022-11-14T04:26:13;8.45;;;5.80;;
29412;SDS011;16389;50.126;8.450;2022-11-14T04:28:39;10.13;;;6.15;;
29412;SDS011;16389;50.126;8.450;2022-11-14T04:31:04;11.15;;;6.93;;
29412;SDS011;16389;50.126;8.450;2022-11-14T04:33:30;10.43;;;6.15;;
29412;SDS011;16389;50.126;8.450;2022-11-14T04:35:55;8.77;;;5.80;;
29412;SDS011;16389;50.126;8.450;2022-11-14T04:38:21;14.25;;;6.78;;
29412;SDS011;16389;50.126;8.450;2022-11-14T04:40:47;7.97;;;6.68;;
29412;SDS011;16389;50.126;8.450;2022-11-14T04:43:17;10.50;;;7.30;;
29412;SDS011;16389;50.126;8.450;2022-11-14T04:45:42;7.60;;;5.45;;
29412;SDS011;16389;50.126;8.450;2022-11-14T04:48:08;6.47;;;5.70;;
29412;SDS011;16389;50.126;8.450;2022-11-14T04:50:34;8.13;;;6.28;;
29412;SDS011;16389;50.126;8.450;2022-11-14T04:52:59;8.75;;;7.25;;
29412;SDS011;16389;50.126;8.450;2022-11-14T04:55:25;8.07;;;7.15;;
29412;SDS011;16389;50.126;8.450;2022-11-14T04:57:54;7.25;;;6.18;;
29412;SDS011;16389;50.126;8.450;2022-11-14T05:00:21;9.10;;;6.75;;
29412;SDS011;16389;50.126;8.450;2022-11-14T05:02:47;8.57;;;6.50;;
29412;SDS011;16389;50.126;8.450;2022-11-14T05:05:13;8.95;;;6.03;;
29412;SDS011;16389;50.126;8.450;2022-11-14T05:07:39;6.80;;;5.53;;
29412;SDS011;16389;50.126;8.450;2022-11-14T05:10:05;9.07;;;5.53;;
29412;SDS011;16389;50.126;8.450;2022-11-14T05:12:32;9.82;;;6.40;;
29412;SDS011;16389;50.126;8.450;2022-11-14T05:14:58;6.90;;;5.70;;
29412;SDS011;16389;50.126;8.450;2022-11-14T05:17:24;9.98;;;6.03;;
29412;SDS011;16389;50.126;8.450;2022-11-14T05:19:49;9.35;;;5.97;;
29412;SDS011;16389;50.126;8.450;2022-11-14T05:22:15;9.55;;;6.22;;
29412;SDS011;16389;50.126;8.450;2022-11-14T05:24:41;9.52;;;6.25;;
29412;SDS011;16389;50.126;8.450;2022-11-14T05:27:07;8.13;;;5.85;;
29412;SDS011;16389;50.126;8.450;2022-11-14T05:29:32;12.95;;;7.78;;
29412;SDS011;16389;50.126;8.450;2022-11-14T05:31:58;8.93;;;6.50;;
29412;SDS011;16389;50.126;8.450;2022-11-14T05:34:24;8.68;;;6.07;;
29412;SDS011;16389;50.126;8.450;2022-11-14T05:36:50;10.63;;;7.00;;
29412;SDS011;16389;50.126;8.450;2022-11-14T05:39:16;9.70;;;5.43;;
29412;SDS011;16389;50.126;8.450;2022-11-14T05:41:42;11.85;;;6.70;;
29412;SDS011;16389;50.126;8.450;2022-11-14T05:44:07;8.85;;;6.72;;
29412;SDS011;16389;50.126;8.450;2022-11-14T05:46:33;9.07;;;6.53;;
29412;SDS011;16389;50.126;8.450;2022-11-14T05:48:58;8.77;;;6.38;;
29412;SDS011;16389;50.126;8.450;2022-11-14T05:51:24;10.30;;;6.13;;
29412;SDS011;16389;50.126;8.450;2022-11-14T05:53:50;14.35;;;7.93;;
29412;SDS011;16389;50.126;8.450;2022-11-14T05:56:15;19.83;;;8.80;;
29412;SDS011;16389;50.126;8.450;2022-11-14T05:58:41;12.57;;;8.15;;
29412;SDS011;16389;50.126;8.450;2022-11-14T06:01:08;9.75;;;8.27;;
29412;SDS011;16389;50.126;8.450;2022-11-14T06:03:39;10.00;;;6.63;;
29412;SDS011;16389;50.126;8.450;2022-11-14T06:06:07;11.13;;;7.05;;
29412;SDS011;16389;50.126;8.450;2022-11-14T06:08:34;9.13;;;5.97;;
29412;SDS011;16389;50.126;8.450;2022-11-14T06:11:01;11.60;;;6.95;;
29412;SDS011;16389;50.126;8.450;2022-11-14T06:13:35;11.65;;;6.43;;
29412;SDS011;16389;50.126;8.450;2022-11-14T06:16:01;10.35;;;7.30;;
29412;SDS011;16389;50.126;8.450;2022-11-14T06:18:29;12.52;;;7.82;;
29412;SDS011;16389;50.126;8.450;2022-11-14T06:20:59;13.18;;;7.72;;
29412;SDS011;16389;50.126;8.450;2022-11-14T06:23:25;10.25;;;7.55;;
29412;SDS011;16389;50.126;8.450;2022-11-14T06:25:51;9.95;;;6.13;;
29412;SDS011;16389;50.126;8.450;2022-11-14T06:28:16;7.75;;;6.85;;
29412;SDS011;16389;50.126;8.450;2022-11-14T06:30:42;12.85;;;7.80;;
29412;SDS011;16389;50.126;8.450;2022-11-14T06:33:07;23.40;;;7.95;;
29412;SDS011;16389;50.126;8.450;2022-11-14T06:35:33;16.90;;;8.57;;
29412;SDS011;16389;50.126;8.450;2022-11-14T06:37:59;14.48;;;9.30;;
29412;SDS011;16389;50.126;8.450;2022-11-14T06:40:24;12.40;;;8.55;;
29412;SDS011;16389;50.126;8.450;2022-11-14T06:42:51;10.00;;;7.72;;
29412;SDS011;16389;50.126;8.450;2022-11-14T06:45:19;11.45;;;8.32;;
29412;SDS011;16389;50.126;8.450;2022-11-14T06:47:45;13.48;;;8.05;;
29412;SDS011;16389;50.126;8.450;2022-11-14T06:50:10;13.00;;;7.30;;
29412;SDS011;16389;50.126;8.450;2022-11-14T06:52:36;10.90;;;7.57;;
29412;SDS011;16389;50.126;8.450;2022-11-14T06:55:02;18.75;;;9.85;;
29412;SDS011;16389;50.126;8.450;2022-11-14T06:57:27;14.55;;;8.82;;
29412;SDS011;16389;50.126;8.450;2022-11-14T06:59:53;19.90;;;9.55;;
29412;SDS011;16389;50.126;8.450;2022-11-14T07:02:18;12.48;;;8.38;;
29412;SDS011;16389;50.126;8.450;2022-11-14T07:04:44;13.45;;;9.45;;
29412;SDS011;16389;50.126;8.450;2022-11-14T07:07:09;11.00;;;8.52;;
29412;SDS011;16389;50.126;8.450;2022-11-14T07:09:35;17.55;;;10.20;;
29412;SDS011;16389;50.126;8.450;2022-11-14T07:12:01;21.15;;;11.98;;
29412;SDS011;16389;50.126;8.450;2022-11-14T07:14:26;18.80;;;10.88;;
29412;SDS011;16389;50.126;8.450;2022-11-14T07:16:52;18.05;;;10.13;;
29412;SDS011;16389;50.126;8.450;2022-11-14T07:19:18;18.30;;;10.05;;
29412;SDS011;16389;50.126;8.450;2022-11-14T07:21:44;14.65;;;8.90;;
29412;SDS011;16389;50.126;8.450;2022-11-14T07:24:09;15.05;;;9.15;;
29412;SDS011;16389;50.126;8.450;2022-11-14T07:26:35;23.58;;;11.50;;
29412;SDS011;16389;50.126;8.450;2022-11-14T07:29:00;18.67;;;9.82;;
29412;SDS011;16389;50.126;8.450;2022-11-14T07:31:26;14.65;;;9.65;;
29412;SDS011;16389;50.126;8.450;2022-11-14T07:33:51;15.50;;;9.38;;
29412;SDS011;16389;50.126;8.450;2022-11-14T07:36:18;17.67;;;10.77;;
29412;SDS011;16389;50.126;8.450;2022-11-14T07:38:43;17.92;;;10.15;;
29412;SDS011;16389;50.126;8.450;2022-11-14T07:41:10;16.60;;;9.95;;
29412;SDS011;16389;50.126;8.450;2022-11-14T07:43:38;12.90;;;9.48;;
29412;SDS011;16389;50.126;8.450;2022-11-14T07:46:05;16.98;;;9.98;;
29412;SDS011;16389;50.126;8.450;2022-11-14T07:48:36;20.98;;;11.90;;
29412;SDS011;16389;50.126;8.450;2022-11-14T07:51:02;24.60;;;13.93;;
29412;SDS011;16389;50.126;8.450;2022-11-14T07:53:30;16.45;;;10.00;;
29412;SDS011;16389;50.126;8.450;2022-11-14T07:56:00;20.00;;;9.93;;
29412;SDS011;16389;50.126;8.450;2022-11-14T07:58:27;12.10;;;9.15;;
29412;SDS011;16389;50.126;8.450;2022-11-14T08:00:53;10.65;;;8.40;;
29412;SDS011;16389;50.126;8.450;2022-11-14T08:03:18;15.25;;;8.60;;
29412;SDS011;16389;50.126;8.450;2022-11-14T08:05:44;20.40;;;10.10;;
29412;SDS011;16389;50.126;8.450;2022-11-14T08:08:09;19.38;;;9.45;;
29412;SDS011;16389;50.126;8.450;2022-11-14T08:10:35;19.95;;;9.88;;
29412;SDS011;16389;50.126;8.450;2022-11-14T08:13:02;19.73;;;11.18;;
29412;SDS011;16389;50.126;8.450;2022-11-14T08:15:29;17.75;;;9.88;;
29412;SDS011;16389;50.126;8.450;2022-11-14T08:17:58;19.30;;;10.05;;
29412;SDS011;16389;50.126;8.450;2022-11-14T08:20:25;16.58;;;10.65;;
29412;SDS011;16389;50.126;8.450;2022-11-14T08:22:52;26.83;;;12.63;;
29412;SDS011;16389;50.126;8.450;2022-11-14T08:25:18;29.35;;;11.63;;
29412;SDS011;16389;50.126;8.450;2022-11-14T08:27:44;25.33;;;12.52;;
29412;SDS011;16389;50.126;8.450;2022-11-14T08:30:09;21.70;;;13.40;;
29412;SDS011;16389;50.126;8.450;2022-11-14T08:32:35;35.25;;;15.02;;
29412;SDS011;16389;50.126;8.450;2022-11-14T08:35:01;21.30;;;12.43;;
29412;SDS011;16389;50.126;8.450;2022-11-14T08:37:27;31.73;;;13.38;;
29412;SDS011;16389;50.126;8.450;2022-11-14T08:39:52;24.67;;;14.55;;
29412;SDS011;16389;50.126;8.450;2022-11-14T08:42:18;22.08;;;11.23;;
29412;SDS011;16389;50.126;8.450;2022-11-14T08:44:43;24.15;;;12.00;;
29412;SDS011;16389;50.126;8.450;2022-11-14T08:47:09;28.92;;;12.05;;
29412;SDS011;16389;50.126;8.450;2022-11-14T08:49:35;22.30;;;12.18;;
29412;SDS011;16389;50.126;8.450;2022-11-14T08:52:00;19.13;;;11.52;;
29412;SDS011;16389;50.126;8.450;2022-11-14T08:54:26;25.27;;;11.40;;
29412;SDS011;16389;50.126;8.450;2022-11-14T08:56:51;28.50;;;12.63;;
29412;SDS011;16389;50.126;8.450;2022-11-14T08:59:17;19.70;;;9.77;;
29412;SDS011;16389;50.126;8.450;2022-11-14T09:01:42;22.95;;;11.60;;
29412;SDS011;16389;50.126;8.450;2022-11-14T09:04:08;19.73;;;10.57;;
29412;SDS011;16389;50.126;8.450;2022-11-14T09:06:34;27.65;;;12.02;;
29412;SDS011;16389;50.126;8.450;2022-11-14T09:08:59;20.95;;;10.48;;
29412;SDS011;16389;50.126;8.450;2022-11-14T09:11:25;21.80;;;11.68;;
29412;SDS011;16389;50.126;8.450;2022-11-14T09:13:50;18.42;;;11.32;;
29412;SDS011;16389;50.126;8.450;2022-11-14T09:16:16;18.98;;;11.00;;
29412;SDS011;16389;50.126;8.450;2022-11-14T09:18:41;30.20;;;14.70;;
29412;SDS011;16389;50.126;8.450;2022-11-14T09:21:07;25.33;;;11.90;;
29412;SDS011;16389;50.126;8.450;2022-11-14T09:23:34;21.40;;;10.88;;
29412;SDS011;16389;50.126;8.450;2022-11-14T09:26:03;16.65;;;9.88;;
29412;SDS011;16389;50.126;8.450;2022-11-14T09:28:30;18.55;;;9.38;;
29412;SDS011;16389;50.126;8.450;2022-11-14T09:31:02;22.15;;;12.00;;
29412;SDS011;16389;50.126;8.450;2022-11-14T09:33:28;24.35;;;10.88;;
29412;SDS011;16389;50.126;8.450;2022-11-14T09:35:55;15.43;;;9.70;;
29412;SDS011;16389;50.126;8.450;2022-11-14T09:38:24;23.90;;;11.25;;
29412;SDS011;16389;50.126;8.450;2022-11-14T09:46:22;21.88;;;10.90;;
29412;SDS011;16389;50.126;8.450;2022-11-14T09:48:49;20.65;;;8.85;;
29412;SDS011;16389;50.126;8.450;2022-11-14T09:53:54;14.05;;;8.90;;
29412;SDS011;16389;50.126;8.450;2022-11-14T09:56:29;13.43;;;9.10;;
29412;SDS011;16389;50.126;8.450;2022-11-14T09:58:54;17.88;;;9.02;;
29412;SDS011;16389;50.126;8.450;2022-11-14T10:06:55;11.93;;;9.07;;
29412;SDS011;16389;50.126;8.450;2022-11-14T10:09:48;17.23;;;9.15;;
29412;SDS011;16389;50.126;8.450;2022-11-14T10:12:26;18.35;;;9.95;;
29412;SDS011;16389;50.126;8.450;2022-11-14T10:25:47;13.95;;;8.70;;
29412;SDS011;16389;50.126;8.450;2022-11-14T10:31:18;12.98;;;8.10;;
29412;SDS011;16389;50.126;8.450;2022-11-14T10:33:53;13.07;;;9.68;;
29412;SDS011;16389;50.126;8.450;2022-11-14T10:36:30;15.00;;;8.23;;
29412;SDS011;16389;50.126;8.450;2022-11-14T10:41:49;12.88;;;8.50;;
29412;SDS011;16389;50.126;8.450;2022-11-14T10:44:20;12.88;;;8.00;;
29412;SDS011;16389;50.126;8.450;2022-11-14T10:46:52;13.00;;;7.35;;
29412;SDS011;16389;50.126;8.450;2022-11-14T10:49:23;11.88;;;8.38;;
29412;SDS011;16389;50.126;8.450;2022-11-14T10:51:54;13.75;;;8.65;;
29412;SDS011;16389;50.126;8.450;2022-11-14T10:54:29;10.63;;;7.35;;
29412;SDS011;16389;50.126;8.450;2022-11-14T10:57:19;12.35;;;8.10;;
29412;SDS011;16389;50.126;8.450;2022-11-14T10:59:46;12.90;;;8.73;;
29412;SDS011;16389;50.126;8.450;2022-11-14T11:02:12;11.02;;;7.15;;
29412;SDS011;16389;50.126;8.450;2022-11-14T11:04:39;12.80;;;6.93;;
29412;SDS011;16389;50.126;8.450;2022-11-14T11:09:42;12.20;;;7.07;;
29412;SDS011;16389;50.126;8.450;2022-11-14T11:15:37;9.57;;;7.40;;
29412;SDS011;16389;50.126;8.450;2022-11-14T11:18:26;7.18;;;5.43;;
29412;SDS011;16389;50.126;8.450;2022-11-14T11:23:33;11.30;;;6.28;;
29412;SDS011;16389;50.126;8.450;2022-11-14T11:26:04;8.60;;;5.95;;
29412;SDS011;16389;50.126;8.450;2022-11-14T11:28:33;8.90;;;6.50;;
29412;SDS011;16389;50.126;8.450;2022-11-14T11:31:01;9.30;;;5.85;;
29412;SDS011;16389;50.126;8.450;2022-11-14T11:33:32;9.25;;;6.78;;
29412;SDS011;16389;50.126;8.450;2022-11-14T11:36:00;9.70;;;7.22;;
29412;SDS011;16389;50.126;8.450;2022-11-14T11:38:30;7.63;;;5.30;;
29412;SDS011;16389;50.126;8.450;2022-11-14T11:40:58;10.45;;;6.13;;
29412;SDS011;16389;50.126;8.450;2022-11-14T11:46:10;11.23;;;6.72;;
29412;SDS011;16389;50.126;8.450;2022-11-14T11:48:43;9.43;;;6.75;;
29412;SDS011;16389;50.126;8.450;2022-11-14T11:51:15;8.57;;;6.13;;
29412;SDS011;16389;50.126;8.450;2022-11-14T11:53:54;14.02;;;6.97;;
29412;SDS011;16389;50.126;8.450;2022-11-14T11:56:29;7.35;;;5.82;;
29412;SDS011;16389;50.126;8.450;2022-11-14T12:01:52;7.75;;;4.88;;
29412;SDS011;16389;50.126;8.450;2022-11-14T12:04:18;8.65;;;6.10;;
29412;SDS011;16389;50.126;8.450;2022-11-14T12:06:45;11.45;;;6.22;;
29412;SDS011;16389;50.126;8.450;2022-11-14T12:09:28;7.32;;;5.40;;
29412;SDS011;16389;50.126;8.450;2022-11-14T12:12:01;6.95;;;5.38;;
29412;SDS011;16389;50.126;8.450;2022-11-14T12:25:27;9.35;;;7.03;;
29412;SDS011;16389;50.126;8.450;2022-11-14T12:31:24;8.18;;;6.00;;
29412;SDS011;16389;50.126;8.450;2022-11-14T12:33:56;9.50;;;7.32;;
29412;SDS011;16389;50.126;8.450;2022-11-14T12:36:29;8.15;;;5.93;;
29412;SDS011;16389;50.126;8.450;2022-11-14T12:38:57;8.75;;;7.40;;
29412;SDS011;16389;50.126;8.450;2022-11-14T12:41:29;12.18;;;6.45;;
29412;SDS011;16389;50.126;8.450;2022-11-14T12:49:39;7.20;;;5.30;;
29412;SDS011;16389;50.126;8.450;2022-11-14T13:00:25;11.07;;;6.10;;
29412;SDS011;16389;50.126;8.450;2022-11-14T13:03:00;11.13;;;6.75;;
29412;SDS011;16389;50.126;8.450;2022-11-14T13:11:32;10.68;;;6.10;;
29412;SDS011;16389;50.126;8.450;2022-11-14T13:14:24;7.30;;;5.45;;
29412;SDS011;16389;50.126;8.450;2022-11-14T13:19:56;8.85;;;5.07;;
29412;SDS011;16389;50.126;8.450;2022-11-14T13:22:44;7.32;;;4.90;;
29412;SDS011;16389;50.126;8.450;2022-11-14T13:27:36;7.65;;;5.93;;
29412;SDS011;16389;50.126;8.450;2022-11-14T13:30:05;6.13;;;5.22;;
29412;SDS011;16389;50.126;8.450;2022-11-14T13:35:45;7.82;;;4.97;;
29412;SDS011;16389;50.126;8.450;2022-11-14T13:41:29;7.10;;;4.93;;
29412;SDS011;16389;50.126;8.450;2022-11-14T13:44:21;8.02;;;6.38;;
29412;SDS011;16389;50.126;8.450;2022-11-14T13:50:35;11.60;;;5.97;;
29412;SDS011;16389;50.126;8.450;2022-11-14T13:53:19;9.35;;;6.10;;
29412;SDS011;16389;50.126;8.450;2022-11-14T14:01:51;7.97;;;5.47;;
29412;SDS011;16389;50.126;8.450;2022-11-14T14:10:24;11.02;;;5.63;;
29412;SDS011;16389;50.126;8.450;2022-11-14T14:18:37;6.90;;;5.43;;
29412;SDS011;16389;50.126;8.450;2022-11-14T14:24:24;6.85;;;4.38;;
29412;SDS011;16389;50.126;8.450;2022-11-14T14:30:11;59.60;;;20.70;;
29412;SDS011;16389;50.126;8.450;2022-11-14T14:32:40;35.58;;;16.27;;
29412;SDS011;16389;50.126;8.450;2022-11-14T14:38:04;16.02;;;10.00;;
29412;SDS011;16389;50.126;8.450;2022-11-14T14:40:38;23.70;;;9.52;;
29412;SDS011;16389;50.126;8.450;2022-11-14T14:43:05;19.83;;;9.13;;
29412;SDS011;16389;50.126;8.450;2022-11-14T14:45:35;12.02;;;8.18;;
29412;SDS011;16389;50.126;8.450;2022-11-14T14:48:12;10.93;;;7.35;;
29412;SDS011;16389;50.126;8.450;2022-11-14T14:50:40;18.92;;;9.15;;
29412;SDS011;16389;50.126;8.450;2022-11-14T14:53:19;18.95;;;9.65;;
29412;SDS011;16389;50.126;8.450;2022-11-14T14:55:50;18.83;;;7.72;;
29412;SDS011;16389;50.126;8.450;2022-11-14T15:00:54;12.30;;;8.13;;
29412;SDS011;16389;50.126;8.450;2022-11-14T15:03:23;8.88;;;6.35;;
29412;SDS011;16389;50.126;8.450;2022-11-14T15:06:02;10.75;;;7.25;;
29412;SDS011;16389;50.126;8.450;2022-11-14T15:08:29;9.07;;;6.22;;
29412;SDS011;16389;50.126;8.450;2022-11-14T15:11:01;15.57;;;7.28;;
29412;SDS011;16389;50.126;8.450;2022-11-14T15:13:28;7.43;;;6.50;;
29412;SDS011;16389;50.126;8.450;2022-11-14T15:15:54;7.53;;;5.97;;
29412;SDS011;16389;50.126;8.450;2022-11-14T15:18:25;9.32;;;5.25;;
29412;SDS011;16389;50.126;8.450;2022-11-14T15:23:56;6.50;;;4.45;;
29412;SDS011;16389;50.126;8.450;2022-11-14T15:26:42;5.05;;;3.72;;
29412;SDS011;16389;50.126;8.450;2022-11-14T15:29:19;4.97;;;4.07;;
29412;SDS011;16389;50.126;8.450;2022-11-14T15:31:47;7.82;;;3.92;;
29412;SDS011;16389;50.126;8.450;2022-11-14T15:34:25;6.40;;;3.85;;
29412;SDS011;16389;50.126;8.450;2022-11-14T15:39:38;6.18;;;3.65;;
29412;SDS011;16389;50.126;8.450;2022-11-14T15:42:16;5.80;;;3.97;;
29412;SDS011;16389;50.126;8.450;2022-11-14T15:44:48;3.58;;;3.15;;
29412;SDS011;16389;50.126;8.450;2022-11-14T15:47:25;6.97;;;3.92;;
29412;SDS011;16389;50.126;8.450;2022-11-14T15:49:59;4.93;;;3.63;;
29412;SDS011;16389;50.126;8.450;2022-11-14T15:52:39;6.28;;;4.55;;
29412;SDS011;16389;50.126;8.450;2022-11-14T15:55:20;5.28;;;3.67;;
29412;SDS011;16389;50.126;8.450;2022-11-14T15:57:47;4.53;;;2.88;;
29412;SDS011;16389;50.126;8.450;2022-11-14T16:00:13;5.97;;;3.58;;
29412;SDS011;16389;50.126;8.450;2022-11-14T16:02:42;5.25;;;3.35;;
29412;SDS011;16389;50.126;8.450;2022-11-14T16:05:11;5.28;;;3.35;;
29412;SDS011;16389;50.126;8.450;2022-11-14T16:07:38;5.75;;;3.15;;
29412;SDS011;16389;50.126;8.450;2022-11-14T16:10:14;6.35;;;3.97;;
29412;SDS011;16389;50.126;8.450;2022-11-14T16:12:40;4.10;;;3.70;;
29412;SDS011;16389;50.126;8.450;2022-11-14T16:15:06;7.47;;;4.00;;
29412;SDS011;16389;50.126;8.450;2022-11-14T16:17:36;5.03;;;3.95;;
29412;SDS011;16389;50.126;8.450;2022-11-14T16:20:04;6.38;;;4.10;;
29412;SDS011;16389;50.126;8.450;2022-11-14T16:22:31;7.53;;;3.80;;
29412;SDS011;16389;50.126;8.450;2022-11-14T16:24:59;6.47;;;5.22;;
29412;SDS011;16389;50.126;8.450;2022-11-14T16:27:25;14.38;;;5.50;;
29412;SDS011;16389;50.126;8.450;2022-11-14T16:29:51;7.32;;;4.03;;
29412;SDS011;16389;50.126;8.450;2022-11-14T16:32:17;6.28;;;3.88;;
29412;SDS011;16389;50.126;8.450;2022-11-14T16:34:43;6.38;;;4.18;;
29412;SDS011;16389;50.126;8.450;2022-11-14T16:37:12;8.10;;;4.40;;
29412;SDS011;16389;50.126;8.450;2022-11-14T16:39:38;6.05;;;3.83;;
29412;SDS011;16389;50.126;8.450;2022-11-14T16:42:04;5.22;;;3.08;;
29412;SDS011;16389;50.126;8.450;2022-11-14T16:44:30;7.40;;;4.55;;
29412;SDS011;16389;50.126;8.450;2022-11-14T16:46:56;4.60;;;4.10;;
29412;SDS011;16389;50.126;8.450;2022-11-14T16:49:22;4.40;;;2.85;;
29412;SDS011;16389;50.126;8.450;2022-11-14T16:51:48;5.35;;;4.10;;
29412;SDS011;16389;50.126;8.450;2022-11-14T16:54:15;9.00;;;4.68;;
29412;SDS011;16389;50.126;8.450;2022-11-14T16:56:42;6.07;;;3.92;;
29412;SDS011;16389;50.126;8.450;2022-11-14T16:59:08;6.10;;;4.35;;